sensor_id;sensor_type;location;lat;lon;timestamp;P1;durP1;ratioP1;P2;durP2;ratioP2
27983;SDS011;15317;50.360;8.726;2023-04-26T00:01:54;4.60;;;3.90;;
27983;SDS011;15317;50.360;8.726;2023-04-26T00:06:59;5.53;;;3.70;;
27983;SDS011;15317;50.360;8.726;2023-04-26T00:12:04;7.00;;;3.87;;
27983;SDS011;15317;50.360;8.726;2023-04-26T00:17:07;4.03;;;3.50;;
27983;SDS011;15317;50.360;8.726;2023-04-26T00:22:10;4.83;;;3.90;;
27983;SDS011;15317;50.360;8.726;2023-04-26T00:27:15;4.07;;;3.30;;
27983;SDS011;15317;50.360;8.726;2023-04-26T00:32:18;5.50;;;4.03;;
27983;SDS011;15317;50.360;8.726;2023-04-26T00:42:29;5.37;;;3.97;;
27983;SDS011;15317;50.360;8.726;2023-04-26T00:47:32;4.33;;;3.50;;
27983;SDS011;15317;50.360;8.726;2023-04-26T00:52:36;4.37;;;3.60;;
27983;SDS011;15317;50.360;8.726;2023-04-26T00:57:41;4.73;;;3.40;;
27983;SDS011;15317;50.360;8.726;2023-04-26T01:02:46;3.97;;;3.63;;
27983;SDS011;15317;50.360;8.726;2023-04-26T01:07:49;5.17;;;4.13;;
27983;SDS011;15317;50.360;8.726;2023-04-26T01:12:54;5.23;;;3.90;;
27983;SDS011;15317;50.360;8.726;2023-04-26T01:17:58;4.43;;;3.77;;
27983;SDS011;15317;50.360;8.726;2023-04-26T01:23:04;5.03;;;3.80;;
27983;SDS011;15317;50.360;8.726;2023-04-26T01:28:07;4.50;;;3.80;;
27983;SDS011;15317;50.360;8.726;2023-04-26T01:33:11;5.43;;;4.00;;
27983;SDS011;15317;50.360;8.726;2023-04-26T01:38:17;4.53;;;4.13;;
27983;SDS011;15317;50.360;8.726;2023-04-26T01:43:20;5.10;;;4.47;;
27983;SDS011;15317;50.360;8.726;2023-04-26T01:48:24;5.77;;;4.03;;
27983;SDS011;15317;50.360;8.726;2023-04-26T01:53:28;4.73;;;3.93;;
27983;SDS011;15317;50.360;8.726;2023-04-26T01:58:31;6.90;;;4.23;;
27983;SDS011;15317;50.360;8.726;2023-04-26T02:03:35;6.07;;;4.37;;
27983;SDS011;15317;50.360;8.726;2023-04-26T02:08:39;5.97;;;4.00;;
27983;SDS011;15317;50.360;8.726;2023-04-26T02:13:43;5.43;;;4.10;;
27983;SDS011;15317;50.360;8.726;2023-04-26T02:18:46;6.03;;;4.30;;
27983;SDS011;15317;50.360;8.726;2023-04-26T02:23:52;4.27;;;3.90;;
27983;SDS011;15317;50.360;8.726;2023-04-26T02:28:55;4.30;;;3.90;;
27983;SDS011;15317;50.360;8.726;2023-04-26T02:33:58;4.20;;;3.77;;
27983;SDS011;15317;50.360;8.726;2023-04-26T02:39:03;4.77;;;4.00;;
27983;SDS011;15317;50.360;8.726;2023-04-26T02:44:07;7.73;;;3.87;;
27983;SDS011;15317;50.360;8.726;2023-04-26T02:49:10;5.67;;;4.27;;
27983;SDS011;15317;50.360;8.726;2023-04-26T02:54:15;5.33;;;4.13;;
27983;SDS011;15317;50.360;8.726;2023-04-26T02:59:18;4.80;;;3.83;;
27983;SDS011;15317;50.360;8.726;2023-04-26T03:04:21;4.37;;;3.43;;
27983;SDS011;15317;50.360;8.726;2023-04-26T03:09:26;4.57;;;3.70;;
27983;SDS011;15317;50.360;8.726;2023-04-26T03:14:29;6.17;;;3.67;;
27983;SDS011;15317;50.360;8.726;2023-04-26T03:19:32;5.63;;;4.60;;
27983;SDS011;15317;50.360;8.726;2023-04-26T03:24:36;6.37;;;4.00;;
27983;SDS011;15317;50.360;8.726;2023-04-26T03:29:39;5.70;;;3.73;;
27983;SDS011;15317;50.360;8.726;2023-04-26T03:34:44;5.63;;;4.10;;
27983;SDS011;15317;50.360;8.726;2023-04-26T03:39:50;5.37;;;4.03;;
27983;SDS011;15317;50.360;8.726;2023-04-26T03:44:54;9.57;;;4.37;;
27983;SDS011;15317;50.360;8.726;2023-04-26T03:49:57;5.97;;;4.33;;
27983;SDS011;15317;50.360;8.726;2023-04-26T03:55:02;9.07;;;4.50;;
27983;SDS011;15317;50.360;8.726;2023-04-26T04:00:06;6.83;;;4.40;;
27983;SDS011;15317;50.360;8.726;2023-04-26T04:05:12;6.63;;;4.60;;
27983;SDS011;15317;50.360;8.726;2023-04-26T04:10:17;5.33;;;4.53;;
27983;SDS011;15317;50.360;8.726;2023-04-26T04:15:20;5.17;;;4.50;;
27983;SDS011;15317;50.360;8.726;2023-04-26T04:20:23;7.80;;;4.57;;
27983;SDS011;15317;50.360;8.726;2023-04-26T04:25:28;6.93;;;4.73;;
27983;SDS011;15317;50.360;8.726;2023-04-26T04:30:31;7.33;;;5.20;;
27983;SDS011;15317;50.360;8.726;2023-04-26T04:35:35;8.87;;;5.13;;
27983;SDS011;15317;50.360;8.726;2023-04-26T04:40:39;7.57;;;5.27;;
27983;SDS011;15317;50.360;8.726;2023-04-26T04:45:43;7.67;;;5.10;;
27983;SDS011;15317;50.360;8.726;2023-04-26T04:50:46;7.10;;;5.00;;
27983;SDS011;15317;50.360;8.726;2023-04-26T04:55:50;4.67;;;4.27;;
27983;SDS011;15317;50.360;8.726;2023-04-26T05:00:53;5.07;;;4.10;;
27983;SDS011;15317;50.360;8.726;2023-04-26T05:05:56;5.13;;;4.23;;
27983;SDS011;15317;50.360;8.726;2023-04-26T05:11:01;8.27;;;4.87;;
27983;SDS011;15317;50.360;8.726;2023-04-26T05:16:04;6.90;;;4.20;;
27983;SDS011;15317;50.360;8.726;2023-04-26T05:21:08;6.07;;;3.90;;
27983;SDS011;15317;50.360;8.726;2023-04-26T05:26:13;5.67;;;3.80;;
27983;SDS011;15317;50.360;8.726;2023-04-26T05:31:17;4.00;;;3.47;;
27983;SDS011;15317;50.360;8.726;2023-04-26T05:36:20;9.07;;;4.37;;
27983;SDS011;15317;50.360;8.726;2023-04-26T05:41:25;5.30;;;3.80;;
27983;SDS011;15317;50.360;8.726;2023-04-26T05:46:28;5.93;;;3.40;;
27983;SDS011;15317;50.360;8.726;2023-04-26T05:51:31;6.03;;;3.40;;
27983;SDS011;15317;50.360;8.726;2023-04-26T05:56:35;8.23;;;3.70;;
27983;SDS011;15317;50.360;8.726;2023-04-26T06:01:39;5.73;;;3.37;;
27983;SDS011;15317;50.360;8.726;2023-04-26T06:06:42;6.20;;;3.90;;
27983;SDS011;15317;50.360;8.726;2023-04-26T06:11:46;9.17;;;3.97;;
27983;SDS011;15317;50.360;8.726;2023-04-26T06:16:50;6.90;;;3.57;;
27983;SDS011;15317;50.360;8.726;2023-04-26T06:21:53;5.87;;;3.47;;
27983;SDS011;15317;50.360;8.726;2023-04-26T06:26:59;5.97;;;3.50;;
27983;SDS011;15317;50.360;8.726;2023-04-26T06:32:03;6.70;;;3.70;;
27983;SDS011;15317;50.360;8.726;2023-04-26T06:37:06;6.13;;;3.53;;
27983;SDS011;15317;50.360;8.726;2023-04-26T06:42:11;9.60;;;4.57;;
27983;SDS011;15317;50.360;8.726;2023-04-26T06:47:14;6.33;;;3.13;;
27983;SDS011;15317;50.360;8.726;2023-04-26T06:52:17;5.30;;;4.07;;
27983;SDS011;15317;50.360;8.726;2023-04-26T06:57:23;5.67;;;2.80;;
27983;SDS011;15317;50.360;8.726;2023-04-26T07:02:27;3.27;;;2.80;;
27983;SDS011;15317;50.360;8.726;2023-04-26T07:07:30;4.67;;;2.70;;
27983;SDS011;15317;50.360;8.726;2023-04-26T07:12:35;4.37;;;2.70;;
27983;SDS011;15317;50.360;8.726;2023-04-26T07:17:38;4.27;;;2.73;;
27983;SDS011;15317;50.360;8.726;2023-04-26T07:22:42;6.27;;;2.73;;
27983;SDS011;15317;50.360;8.726;2023-04-26T07:27:46;6.00;;;2.30;;
27983;SDS011;15317;50.360;8.726;2023-04-26T07:32:52;7.33;;;2.50;;
27983;SDS011;15317;50.360;8.726;2023-04-26T07:37:55;6.37;;;2.70;;
27983;SDS011;15317;50.360;8.726;2023-04-26T07:43:00;7.70;;;2.67;;
27983;SDS011;15317;50.360;8.726;2023-04-26T07:48:04;5.37;;;2.90;;
27983;SDS011;15317;50.360;8.726;2023-04-26T07:53:07;6.20;;;2.80;;
27983;SDS011;15317;50.360;8.726;2023-04-26T07:58:12;4.50;;;2.10;;
27983;SDS011;15317;50.360;8.726;2023-04-26T08:03:15;5.13;;;3.00;;
27983;SDS011;15317;50.360;8.726;2023-04-26T08:08:19;6.23;;;3.00;;
27983;SDS011;15317;50.360;8.726;2023-04-26T08:13:23;5.17;;;2.43;;
27983;SDS011;15317;50.360;8.726;2023-04-26T08:18:30;4.10;;;2.03;;
27983;SDS011;15317;50.360;8.726;2023-04-26T08:23:34;4.40;;;2.50;;
27983;SDS011;15317;50.360;8.726;2023-04-26T08:28:39;4.27;;;2.67;;
27983;SDS011;15317;50.360;8.726;2023-04-26T08:33:42;6.77;;;2.70;;
27983;SDS011;15317;50.360;8.726;2023-04-26T08:38:46;6.27;;;2.10;;
27983;SDS011;15317;50.360;8.726;2023-04-26T08:43:50;3.50;;;2.20;;
27983;SDS011;15317;50.360;8.726;2023-04-26T08:48:57;3.27;;;2.00;;
27983;SDS011;15317;50.360;8.726;2023-04-26T08:54:08;4.10;;;2.00;;
27983;SDS011;15317;50.360;8.726;2023-04-26T08:59:14;5.67;;;2.30;;
27983;SDS011;15317;50.360;8.726;2023-04-26T09:04:18;3.80;;;2.83;;
27983;SDS011;15317;50.360;8.726;2023-04-26T09:09:22;4.70;;;2.60;;
27983;SDS011;15317;50.360;8.726;2023-04-26T09:14:31;2.77;;;2.20;;
27983;SDS011;15317;50.360;8.726;2023-04-26T09:19:35;4.40;;;1.90;;
27983;SDS011;15317;50.360;8.726;2023-04-26T09:24:46;3.33;;;2.00;;
27983;SDS011;15317;50.360;8.726;2023-04-26T09:29:58;3.07;;;1.80;;
27983;SDS011;15317;50.360;8.726;2023-04-26T09:35:07;4.30;;;1.90;;
27983;SDS011;15317;50.360;8.726;2023-04-26T09:40:16;5.47;;;2.00;;
27983;SDS011;15317;50.360;8.726;2023-04-26T09:45:22;4.53;;;2.03;;
27983;SDS011;15317;50.360;8.726;2023-04-26T09:50:26;5.53;;;1.90;;
27983;SDS011;15317;50.360;8.726;2023-04-26T09:55:30;4.03;;;2.10;;
27983;SDS011;15317;50.360;8.726;2023-04-26T10:00:39;5.20;;;2.00;;
27983;SDS011;15317;50.360;8.726;2023-04-26T10:05:43;3.00;;;1.83;;
27983;SDS011;15317;50.360;8.726;2023-04-26T10:10:47;3.67;;;2.13;;
27983;SDS011;15317;50.360;8.726;2023-04-26T10:15:53;4.27;;;1.90;;
27983;SDS011;15317;50.360;8.726;2023-04-26T10:20:58;2.50;;;1.80;;
27983;SDS011;15317;50.360;8.726;2023-04-26T10:26:04;4.23;;;2.17;;
27983;SDS011;15317;50.360;8.726;2023-04-26T10:31:08;4.40;;;2.30;;
27983;SDS011;15317;50.360;8.726;2023-04-26T10:36:12;2.97;;;1.70;;
27983;SDS011;15317;50.360;8.726;2023-04-26T10:41:32;4.30;;;2.13;;
27983;SDS011;15317;50.360;8.726;2023-04-26T10:46:38;2.33;;;1.97;;
27983;SDS011;15317;50.360;8.726;2023-04-26T10:57:15;5.20;;;2.23;;
27983;SDS011;15317;50.360;8.726;2023-04-26T11:07:53;2.57;;;2.20;;
27983;SDS011;15317;50.360;8.726;2023-04-26T11:13:05;4.93;;;2.00;;
27983;SDS011;15317;50.360;8.726;2023-04-26T11:18:10;3.30;;;1.50;;
27983;SDS011;15317;50.360;8.726;2023-04-26T11:23:13;2.53;;;1.70;;
27983;SDS011;15317;50.360;8.726;2023-04-26T11:28:17;3.67;;;1.70;;
27983;SDS011;15317;50.360;8.726;2023-04-26T11:33:22;2.13;;;1.57;;
27983;SDS011;15317;50.360;8.726;2023-04-26T11:38:26;3.30;;;1.73;;
27983;SDS011;15317;50.360;8.726;2023-04-26T11:43:33;2.23;;;1.80;;
27983;SDS011;15317;50.360;8.726;2023-04-26T11:48:39;4.20;;;1.97;;
27983;SDS011;15317;50.360;8.726;2023-04-26T11:53:42;4.50;;;1.93;;
27983;SDS011;15317;50.360;8.726;2023-04-26T11:58:46;2.80;;;2.20;;
27983;SDS011;15317;50.360;8.726;2023-04-26T12:03:53;2.17;;;1.73;;
27983;SDS011;15317;50.360;8.726;2023-04-26T12:09:00;3.27;;;2.10;;
27983;SDS011;15317;50.360;8.726;2023-04-26T12:14:06;4.67;;;2.33;;
27983;SDS011;15317;50.360;8.726;2023-04-26T12:19:12;4.53;;;2.00;;
27983;SDS011;15317;50.360;8.726;2023-04-26T12:24:22;5.30;;;2.40;;
27983;SDS011;15317;50.360;8.726;2023-04-26T12:29:26;4.57;;;2.90;;
27983;SDS011;15317;50.360;8.726;2023-04-26T12:39:36;3.83;;;2.80;;
27983;SDS011;15317;50.360;8.726;2023-04-26T12:44:39;3.77;;;2.60;;
27983;SDS011;15317;50.360;8.726;2023-04-26T12:49:44;5.30;;;3.13;;
27983;SDS011;15317;50.360;8.726;2023-04-26T12:54:47;5.37;;;3.60;;
27983;SDS011;15317;50.360;8.726;2023-04-26T12:59:50;3.87;;;3.47;;
27983;SDS011;15317;50.360;8.726;2023-04-26T13:04:54;5.53;;;3.10;;
27983;SDS011;15317;50.360;8.726;2023-04-26T13:09:58;4.00;;;3.40;;
27983;SDS011;15317;50.360;8.726;2023-04-26T13:15:01;5.00;;;4.10;;
27983;SDS011;15317;50.360;8.726;2023-04-26T13:20:06;6.47;;;3.40;;
27983;SDS011;15317;50.360;8.726;2023-04-26T13:25:10;5.27;;;3.73;;
27983;SDS011;15317;50.360;8.726;2023-04-26T13:30:14;5.53;;;3.83;;
27983;SDS011;15317;50.360;8.726;2023-04-26T13:35:18;5.03;;;4.10;;
27983;SDS011;15317;50.360;8.726;2023-04-26T13:40:22;4.57;;;4.10;;
27983;SDS011;15317;50.360;8.726;2023-04-26T13:45:25;5.97;;;4.17;;
27983;SDS011;15317;50.360;8.726;2023-04-26T13:50:33;5.23;;;4.57;;
27983;SDS011;15317;50.360;8.726;2023-04-26T13:55:37;5.33;;;4.33;;
27983;SDS011;15317;50.360;8.726;2023-04-26T14:00:40;6.40;;;4.80;;
27983;SDS011;15317;50.360;8.726;2023-04-26T14:05:45;6.40;;;4.80;;
27983;SDS011;15317;50.360;8.726;2023-04-26T14:10:48;6.53;;;4.47;;
27983;SDS011;15317;50.360;8.726;2023-04-26T14:15:51;6.80;;;4.50;;
27983;SDS011;15317;50.360;8.726;2023-04-26T14:20:55;5.53;;;4.50;;
27983;SDS011;15317;50.360;8.726;2023-04-26T14:25:58;6.30;;;4.70;;
27983;SDS011;15317;50.360;8.726;2023-04-26T14:31:02;7.03;;;4.50;;
27983;SDS011;15317;50.360;8.726;2023-04-26T14:36:07;6.27;;;4.63;;
27983;SDS011;15317;50.360;8.726;2023-04-26T14:41:12;7.03;;;4.87;;
27983;SDS011;15317;50.360;8.726;2023-04-26T14:46:16;5.77;;;4.70;;
27983;SDS011;15317;50.360;8.726;2023-04-26T14:51:20;5.20;;;4.70;;
27983;SDS011;15317;50.360;8.726;2023-04-26T14:56:23;6.00;;;5.00;;
27983;SDS011;15317;50.360;8.726;2023-04-26T15:01:27;5.73;;;5.13;;
27983;SDS011;15317;50.360;8.726;2023-04-26T15:06:32;6.30;;;4.67;;
27983;SDS011;15317;50.360;8.726;2023-04-26T15:11:35;6.90;;;5.07;;
27983;SDS011;15317;50.360;8.726;2023-04-26T15:16:39;6.53;;;5.33;;
27983;SDS011;15317;50.360;8.726;2023-04-26T15:21:44;6.60;;;4.97;;
27983;SDS011;15317;50.360;8.726;2023-04-26T15:26:47;6.47;;;5.00;;
27983;SDS011;15317;50.360;8.726;2023-04-26T15:31:50;7.10;;;4.70;;
27983;SDS011;15317;50.360;8.726;2023-04-26T15:36:54;6.57;;;4.50;;
27983;SDS011;15317;50.360;8.726;2023-04-26T15:42:01;6.67;;;4.50;;
27983;SDS011;15317;50.360;8.726;2023-04-26T15:47:04;9.27;;;4.80;;
27983;SDS011;15317;50.360;8.726;2023-04-26T17:34:07;8.77;;;5.40;;
27983;SDS011;15317;50.360;8.726;2023-04-26T17:39:10;10.13;;;5.40;;
27983;SDS011;15317;50.360;8.726;2023-04-26T17:44:13;6.40;;;5.10;;
27983;SDS011;15317;50.360;8.726;2023-04-26T17:49:17;6.03;;;4.70;;
27983;SDS011;15317;50.360;8.726;2023-04-26T17:54:23;8.27;;;5.57;;
27983;SDS011;15317;50.360;8.726;2023-04-26T17:59:26;5.07;;;4.27;;
27983;SDS011;15317;50.360;8.726;2023-04-26T18:04:30;7.87;;;5.30;;
27983;SDS011;15317;50.360;8.726;2023-04-26T18:09:34;5.97;;;4.73;;
27983;SDS011;15317;50.360;8.726;2023-04-26T18:14:37;7.40;;;4.83;;
27983;SDS011;15317;50.360;8.726;2023-04-26T18:19:46;8.00;;;4.93;;
27983;SDS011;15317;50.360;8.726;2023-04-26T18:24:49;7.23;;;4.20;;
27983;SDS011;15317;50.360;8.726;2023-04-26T18:29:53;7.43;;;4.27;;
27983;SDS011;15317;50.360;8.726;2023-04-26T18:34:57;7.00;;;4.73;;
27983;SDS011;15317;50.360;8.726;2023-04-26T18:40:00;5.17;;;4.43;;
27983;SDS011;15317;50.360;8.726;2023-04-26T18:45:06;7.07;;;4.53;;
27983;SDS011;15317;50.360;8.726;2023-04-26T18:50:11;6.03;;;4.70;;
27983;SDS011;15317;50.360;8.726;2023-04-26T18:55:14;7.83;;;5.00;;
27983;SDS011;15317;50.360;8.726;2023-04-26T19:00:18;5.90;;;4.70;;
27983;SDS011;15317;50.360;8.726;2023-04-26T19:05:23;5.90;;;4.57;;
27983;SDS011;15317;50.360;8.726;2023-04-26T19:10:26;10.07;;;5.30;;
27983;SDS011;15317;50.360;8.726;2023-04-26T19:15:29;5.00;;;4.60;;
27983;SDS011;15317;50.360;8.726;2023-04-26T19:20:34;6.20;;;4.70;;
27983;SDS011;15317;50.360;8.726;2023-04-26T19:25:38;6.03;;;5.03;;
27983;SDS011;15317;50.360;8.726;2023-04-26T19:30:41;5.00;;;4.53;;
27983;SDS011;15317;50.360;8.726;2023-04-26T19:35:46;5.00;;;4.50;;
27983;SDS011;15317;50.360;8.726;2023-04-26T19:40:49;5.70;;;4.87;;
27983;SDS011;15317;50.360;8.726;2023-04-26T19:45:52;8.80;;;5.30;;
27983;SDS011;15317;50.360;8.726;2023-04-26T19:50:56;6.63;;;5.20;;
27983;SDS011;15317;50.360;8.726;2023-04-26T19:56:00;12.20;;;7.33;;
27983;SDS011;15317;50.360;8.726;2023-04-26T20:01:04;6.40;;;5.80;;
27983;SDS011;15317;50.360;8.726;2023-04-26T20:06:09;6.63;;;5.40;;
27983;SDS011;15317;50.360;8.726;2023-04-26T20:11:14;11.23;;;10.07;;
27983;SDS011;15317;50.360;8.726;2023-04-26T20:16:19;9.97;;;8.93;;
27983;SDS011;15317;50.360;8.726;2023-04-26T20:21:23;11.23;;;10.03;;
27983;SDS011;15317;50.360;8.726;2023-04-26T20:26:29;17.80;;;14.10;;
27983;SDS011;15317;50.360;8.726;2023-04-26T20:31:32;22.47;;;17.90;;
27983;SDS011;15317;50.360;8.726;2023-04-26T20:36:37;22.67;;;20.20;;
27983;SDS011;15317;50.360;8.726;2023-04-26T20:41:41;12.00;;;10.20;;
27983;SDS011;15317;50.360;8.726;2023-04-26T20:46:44;12.33;;;10.53;;
27983;SDS011;15317;50.360;8.726;2023-04-26T20:51:48;8.97;;;5.87;;
27983;SDS011;15317;50.360;8.726;2023-04-26T20:56:52;9.83;;;8.23;;
27983;SDS011;15317;50.360;8.726;2023-04-26T21:01:55;7.87;;;5.57;;
27983;SDS011;15317;50.360;8.726;2023-04-26T21:06:59;7.27;;;5.23;;
27983;SDS011;15317;50.360;8.726;2023-04-26T21:12:03;7.10;;;5.67;;
27983;SDS011;15317;50.360;8.726;2023-04-26T21:17:06;6.20;;;5.53;;
27983;SDS011;15317;50.360;8.726;2023-04-26T21:22:11;7.00;;;5.10;;
27983;SDS011;15317;50.360;8.726;2023-04-26T21:27:14;8.23;;;4.90;;
27983;SDS011;15317;50.360;8.726;2023-04-26T21:32:17;6.87;;;5.80;;
27983;SDS011;15317;50.360;8.726;2023-04-26T21:37:21;7.77;;;5.40;;
27983;SDS011;15317;50.360;8.726;2023-04-26T21:42:25;6.67;;;5.90;;
27983;SDS011;15317;50.360;8.726;2023-04-26T21:47:28;6.27;;;5.20;;
27983;SDS011;15317;50.360;8.726;2023-04-26T21:52:32;8.03;;;6.20;;
27983;SDS011;15317;50.360;8.726;2023-04-26T21:57:35;9.47;;;7.23;;
27983;SDS011;15317;50.360;8.726;2023-04-26T22:02:39;12.03;;;7.07;;
27983;SDS011;15317;50.360;8.726;2023-04-26T22:07:43;8.07;;;6.80;;
27983;SDS011;15317;50.360;8.726;2023-04-26T22:12:47;8.63;;;6.93;;
27983;SDS011;15317;50.360;8.726;2023-04-26T22:17:50;8.13;;;6.43;;
27983;SDS011;15317;50.360;8.726;2023-04-26T22:22:55;6.97;;;5.60;;
27983;SDS011;15317;50.360;8.726;2023-04-26T22:27:58;7.10;;;5.30;;
27983;SDS011;15317;50.360;8.726;2023-04-26T22:33:02;6.60;;;5.80;;
27983;SDS011;15317;50.360;8.726;2023-04-26T22:38:06;7.27;;;5.37;;
27983;SDS011;15317;50.360;8.726;2023-04-26T22:43:09;6.17;;;5.13;;
27983;SDS011;15317;50.360;8.726;2023-04-26T22:48:12;8.57;;;6.10;;
27983;SDS011;15317;50.360;8.726;2023-04-26T22:53:17;6.67;;;5.70;;
27983;SDS011;15317;50.360;8.726;2023-04-26T22:58:20;6.70;;;5.53;;
27983;SDS011;15317;50.360;8.726;2023-04-26T23:03:24;6.57;;;5.13;;
27983;SDS011;15317;50.360;8.726;2023-04-26T23:08:29;6.23;;;5.30;;
27983;SDS011;15317;50.360;8.726;2023-04-26T23:13:32;5.67;;;5.10;;
27983;SDS011;15317;50.360;8.726;2023-04-26T23:18:36;6.53;;;5.30;;
27983;SDS011;15317;50.360;8.726;2023-04-26T23:23:41;6.63;;;5.40;;
27983;SDS011;15317;50.360;8.726;2023-04-26T23:28:44;6.33;;;5.13;;
27983;SDS011;15317;50.360;8.726;2023-04-26T23:33:47;5.83;;;5.23;;
27983;SDS011;15317;50.360;8.726;2023-04-26T23:38:51;5.40;;;4.90;;
27983;SDS011;15317;50.360;8.726;2023-04-26T23:43:54;6.20;;;5.30;;
27983;SDS011;15317;50.360;8.726;2023-04-26T23:48:57;6.40;;;5.57;;
27983;SDS011;15317;50.360;8.726;2023-04-26T23:54:02;7.67;;;5.37;;
27983;SDS011;15317;50.360;8.726;2023-04-26T23:59:05;5.97;;;5.37;;
